sensor_id;sensor_type;location;lat;lon;timestamp;pressure;altitude;pressure_sealevel;temperature;humidity
47670;BME280;33408;52.062;11.722;2023-07-22T00:01:48;100771.00;;;16.37;100.00
47670;BME280;33408;52.062;11.722;2023-07-22T00:04:15;100776.38;;;16.13;100.00
47670;BME280;33408;52.062;11.722;2023-07-22T00:06:42;100777.28;;;16.12;100.00
47670;BME280;33408;52.062;11.722;2023-07-22T00:09:08;100784.00;;;16.18;100.00
47670;BME280;33408;52.062;11.722;2023-07-22T00:11:37;100790.88;;;16.20;100.00
47670;BME280;33408;52.062;11.722;2023-07-22T00:14:04;100787.13;;;15.83;100.00
47670;BME280;33408;52.062;11.722;2023-07-22T00:16:31;100798.13;;;16.14;100.00
47670;BME280;33408;52.062;11.722;2023-07-22T00:18:58;100800.41;;;16.01;100.00
47670;BME280;33408;52.062;11.722;2023-07-22T00:21:25;100805.50;;;16.26;100.00
47670;BME280;33408;52.062;11.722;2023-07-22T00:23:51;100801.59;;;15.92;100.00
47670;BME280;33408;52.062;11.722;2023-07-22T00:26:18;100816.59;;;15.65;100.00
47670;BME280;33408;52.062;11.722;2023-07-22T00:28:46;100814.44;;;15.76;100.00
47670;BME280;33408;52.062;11.722;2023-07-22T00:31:12;100816.38;;;15.69;100.00
47670;BME280;33408;52.062;11.722;2023-07-22T00:33:39;100823.13;;;15.77;100.00
47670;BME280;33408;52.062;11.722;2023-07-22T00:36:05;100819.47;;;15.57;100.00
47670;BME280;33408;52.062;11.722;2023-07-22T00:38:32;100824.03;;;15.98;100.00
47670;BME280;33408;52.062;11.722;2023-07-22T00:40:58;100825.59;;;16.03;100.00
47670;BME280;33408;52.062;11.722;2023-07-22T00:43:25;100818.81;;;16.20;100.00
47670;BME280;33408;52.062;11.722;2023-07-22T00:45:53;100812.13;;;16.13;100.00
47670;BME280;33408;52.062;11.722;2023-07-22T00:48:20;100808.41;;;16.18;100.00
47670;BME280;33408;52.062;11.722;2023-07-22T00:50:47;100812.75;;;16.40;100.00
47670;BME280;33408;52.062;11.722;2023-07-22T00:53:13;100807.72;;;16.35;100.00
47670;BME280;33408;52.062;11.722;2023-07-22T00:55:40;100806.31;;;16.49;100.00
47670;BME280;33408;52.062;11.722;2023-07-22T00:58:08;100810.19;;;16.38;100.00
47670;BME280;33408;52.062;11.722;2023-07-22T01:00:35;100817.81;;;16.65;100.00
47670;BME280;33408;52.062;11.722;2023-07-22T01:03:03;100814.13;;;16.28;100.00
47670;BME280;33408;52.062;11.722;2023-07-22T01:05:32;100816.84;;;16.25;100.00
47670;BME280;33408;52.062;11.722;2023-07-22T01:07:59;100814.13;;;16.28;100.00
47670;BME280;33408;52.062;11.722;2023-07-22T01:10:26;100816.44;;;16.14;100.00
47670;BME280;33408;52.062;11.722;2023-07-22T01:12:55;100821.09;;;15.60;100.00
47670;BME280;33408;52.062;11.722;2023-07-22T01:15:22;100824.09;;;15.73;100.00
47670;BME280;33408;52.062;11.722;2023-07-22T01:17:50;100821.09;;;15.60;100.00
47670;BME280;33408;52.062;11.722;2023-07-22T01:20:18;100824.00;;;15.76;100.00
47670;BME280;33408;52.062;11.722;2023-07-22T01:22:51;100822.84;;;15.84;100.00
47670;BME280;33408;52.062;11.722;2023-07-22T01:25:19;100814.59;;;15.94;100.00
47670;BME280;33408;52.062;11.722;2023-07-22T01:27:47;100814.00;;;16.09;100.00
47670;BME280;33408;52.062;11.722;2023-07-22T01:30:13;100819.84;;;16.16;100.00
47670;BME280;33408;52.062;11.722;2023-07-22T01:32:40;100820.75;;;15.93;100.00
47670;BME280;33408;52.062;11.722;2023-07-22T01:35:07;100818.47;;;16.07;100.00
47670;BME280;33408;52.062;11.722;2023-07-22T01:37:34;100813.94;;;16.11;100.00
47670;BME280;33408;52.062;11.722;2023-07-22T01:40:03;100818.94;;;15.95;100.00
47670;BME280;33408;52.062;11.722;2023-07-22T01:42:37;100816.31;;;15.49;100.00
47670;BME280;33408;52.062;11.722;2023-07-22T01:45:04;100823.53;;;14.93;100.00
47670;BME280;33408;52.062;11.722;2023-07-22T01:47:33;100826.41;;;14.86;100.00
47670;BME280;33408;52.062;11.722;2023-07-22T01:49:59;100824.50;;;14.91;100.00
47670;BME280;33408;52.062;11.722;2023-07-22T01:52:26;100829.97;;;14.56;100.00
47670;BME280;33408;52.062;11.722;2023-07-22T01:54:52;100836.78;;;14.87;100.00
47670;BME280;33408;52.062;11.722;2023-07-22T01:57:20;100831.88;;;15.03;100.00
47670;BME280;33408;52.062;11.722;2023-07-22T01:59:47;100840.50;;;14.53;100.00
47670;BME280;33408;52.062;11.722;2023-07-22T02:02:14;100832.50;;;14.86;100.00
47670;BME280;33408;52.062;11.722;2023-07-22T02:04:40;100833.53;;;15.78;100.00
47670;BME280;33408;52.062;11.722;2023-07-22T02:07:07;100830.78;;;15.58;100.00
47670;BME280;33408;52.062;11.722;2023-07-22T02:09:34;100830.16;;;15.51;100.00
47670;BME280;33408;52.062;11.722;2023-07-22T02:12:01;100835.38;;;15.27;100.00
47670;BME280;33408;52.062;11.722;2023-07-22T02:14:29;100831.81;;;15.30;100.00
47670;BME280;33408;52.062;11.722;2023-07-22T02:16:56;100838.09;;;15.72;100.00
47670;BME280;33408;52.062;11.722;2023-07-22T02:19:22;100838.00;;;15.51;100.00
47670;BME280;33408;52.062;11.722;2023-07-22T02:21:49;100844.16;;;15.72;100.00
47670;BME280;33408;52.062;11.722;2023-07-22T02:24:15;100851.97;;;15.26;100.00
47670;BME280;33408;52.062;11.722;2023-07-22T02:26:43;100848.69;;;15.20;100.00
47670;BME280;33408;52.062;11.722;2023-07-22T02:29:10;100852.50;;;15.11;100.00
47670;BME280;33408;52.062;11.722;2023-07-22T02:31:39;100848.09;;;14.88;100.00
47670;BME280;33408;52.062;11.722;2023-07-22T02:34:05;100850.91;;;15.07;100.00
47670;BME280;33408;52.062;11.722;2023-07-22T02:36:32;100857.97;;;14.51;100.00
47670;BME280;33408;52.062;11.722;2023-07-22T02:38:58;100856.88;;;14.32;100.00
47670;BME280;33408;52.062;11.722;2023-07-22T02:41:25;100859.16;;;14.69;100.00
47670;BME280;33408;52.062;11.722;2023-07-22T02:43:52;100861.44;;;14.25;100.00
47670;BME280;33408;52.062;11.722;2023-07-22T02:46:19;100862.72;;;14.67;100.00
47670;BME280;33408;52.062;11.722;2023-07-22T02:48:46;100869.53;;;15.21;100.00
47670;BME280;33408;52.062;11.722;2023-07-22T02:51:14;100856.47;;;15.70;100.00
47670;BME280;33408;52.062;11.722;2023-07-22T02:53:40;100866.59;;;15.30;100.00
47670;BME280;33408;52.062;11.722;2023-07-22T02:56:07;100864.72;;;15.34;100.00
47670;BME280;33408;52.062;11.722;2023-07-22T02:58:36;100864.28;;;15.46;100.00
47670;BME280;33408;52.062;11.722;2023-07-22T03:01:03;100874.34;;;15.34;100.00
47670;BME280;33408;52.062;11.722;2023-07-22T03:03:29;100869.72;;;15.17;100.00
47670;BME280;33408;52.062;11.722;2023-07-22T03:05:59;100868.69;;;15.46;100.00
47670;BME280;33408;52.062;11.722;2023-07-22T03:08:26;100869.78;;;15.39;100.00
47670;BME280;33408;52.062;11.722;2023-07-22T03:10:53;100877.97;;;15.29;100.00
47670;BME280;33408;52.062;11.722;2023-07-22T03:13:19;100873.72;;;15.27;100.00
47670;BME280;33408;52.062;11.722;2023-07-22T03:15:46;100873.09;;;15.67;100.00
47670;BME280;33408;52.062;11.722;2023-07-22T03:18:12;100884.16;;;14.76;100.00
47670;BME280;33408;52.062;11.722;2023-07-22T03:20:39;100886.88;;;14.45;100.00
47670;BME280;33408;52.062;11.722;2023-07-22T03:23:08;100887.75;;;14.17;100.00
47670;BME280;33408;52.062;11.722;2023-07-22T03:25:34;100885.72;;;13.97;100.00
47670;BME280;33408;52.062;11.722;2023-07-22T03:28:03;100894.84;;;13.82;100.00
47670;BME280;33408;52.062;11.722;2023-07-22T03:30:30;100899.75;;;13.93;100.00
47670;BME280;33408;52.062;11.722;2023-07-22T03:32:57;100897.56;;;14.09;100.00
47670;BME280;33408;52.062;11.722;2023-07-22T03:35:24;100902.69;;;14.12;100.00
47670;BME280;33408;52.062;11.722;2023-07-22T03:37:50;100902.16;;;14.01;100.00
47670;BME280;33408;52.062;11.722;2023-07-22T03:40:18;100900.88;;;13.84;100.00
47670;BME280;33408;52.062;11.722;2023-07-22T03:42:46;100900.34;;;13.73;100.00
47670;BME280;33408;52.062;11.722;2023-07-22T03:45:12;100901.63;;;13.58;100.00
47670;BME280;33408;52.062;11.722;2023-07-22T03:47:39;100911.06;;;13.62;100.00
47670;BME280;33408;52.062;11.722;2023-07-22T03:50:07;100905.28;;;13.82;100.00
47670;BME280;33408;52.062;11.722;2023-07-22T03:52:33;100899.00;;;13.90;100.00
47670;BME280;33408;52.062;11.722;2023-07-22T03:55:00;100902.97;;;14.86;100.00
47670;BME280;33408;52.062;11.722;2023-07-22T03:57:28;100894.97;;;15.89;100.00
47670;BME280;33408;52.062;11.722;2023-07-22T03:59:55;100887.53;;;16.23;100.00
47670;BME280;33408;52.062;11.722;2023-07-22T04:02:22;100890.38;;;16.82;100.00
47670;BME280;33408;52.062;11.722;2023-07-22T04:04:50;100897.84;;;17.13;100.00
47670;BME280;33408;52.062;11.722;2023-07-22T04:07:17;100893.25;;;17.58;100.00
47670;BME280;33408;52.062;11.722;2023-07-22T04:09:44;100892.78;;;18.07;100.00
47670;BME280;33408;52.062;11.722;2023-07-22T04:12:10;100895.91;;;17.96;100.00
47670;BME280;33408;52.062;11.722;2023-07-22T04:14:39;100896.84;;;17.56;100.00
47670;BME280;33408;52.062;11.722;2023-07-22T04:17:06;100892.28;;;17.99;100.00
47670;BME280;33408;52.062;11.722;2023-07-22T04:19:32;100893.00;;;18.02;100.00
47670;BME280;33408;52.062;11.722;2023-07-22T04:21:59;100893.25;;;17.77;100.00
47670;BME280;33408;52.062;11.722;2023-07-22T04:24:29;100897.97;;;18.09;100.00
47670;BME280;33408;52.062;11.722;2023-07-22T04:26:56;100888.16;;;17.93;100.00
47670;BME280;33408;52.062;11.722;2023-07-22T04:29:22;100895.47;;;18.06;100.00
47670;BME280;33408;52.062;11.722;2023-07-22T04:31:50;100896.25;;;18.44;100.00
47670;BME280;33408;52.062;11.722;2023-07-22T04:34:17;100901.25;;;18.31;100.00
47670;BME280;33408;52.062;11.722;2023-07-22T04:36:43;100906.13;;;18.39;100.00
47670;BME280;33408;52.062;11.722;2023-07-22T04:39:10;100906.66;;;18.09;100.00
47670;BME280;33408;52.062;11.722;2023-07-22T04:41:37;100911.50;;;17.99;100.00
47670;BME280;33408;52.062;11.722;2023-07-22T04:44:04;100920.34;;;18.52;100.00
47670;BME280;33408;52.062;11.722;2023-07-22T04:46:30;100915.47;;;18.99;100.00
47670;BME280;33408;52.062;11.722;2023-07-22T04:48:58;100911.00;;;19.01;100.00
47670;BME280;33408;52.062;11.722;2023-07-22T04:51:25;100919.03;;;18.98;100.00
47670;BME280;33408;52.062;11.722;2023-07-22T04:53:52;100915.63;;;18.41;100.00
47670;BME280;33408;52.062;11.722;2023-07-22T04:56:19;100921.16;;;18.72;99.86
47670;BME280;33408;52.062;11.722;2023-07-22T04:58:46;100923.34;;;19.16;95.56
47670;BME280;33408;52.062;11.722;2023-07-22T05:01:12;100923.31;;;18.81;96.74
47670;BME280;33408;52.062;11.722;2023-07-22T05:03:39;100920.00;;;19.12;96.04
47670;BME280;33408;52.062;11.722;2023-07-22T05:06:07;100918.28;;;19.96;91.44
47670;BME280;33408;52.062;11.722;2023-07-22T05:08:34;100922.91;;;19.75;87.89
47670;BME280;33408;52.062;11.722;2023-07-22T05:11:02;100920.91;;;19.96;88.36
47670;BME280;33408;52.062;11.722;2023-07-22T05:13:29;100917.13;;;20.01;88.09
47670;BME280;33408;52.062;11.722;2023-07-22T05:15:56;100913.53;;;19.86;89.88
47670;BME280;33408;52.062;11.722;2023-07-22T05:18:22;100924.09;;;19.69;88.79
47670;BME280;33408;52.062;11.722;2023-07-22T05:20:49;100930.28;;;19.35;92.62
47670;BME280;33408;52.062;11.722;2023-07-22T05:23:17;100934.59;;;19.53;90.30
47670;BME280;33408;52.062;11.722;2023-07-22T05:25:43;100924.50;;;19.61;90.15
47670;BME280;33408;52.062;11.722;2023-07-22T05:28:10;100934.56;;;19.86;90.36
47670;BME280;33408;52.062;11.722;2023-07-22T05:30:36;100927.03;;;19.96;85.81
47670;BME280;33408;52.062;11.722;2023-07-22T05:33:03;100929.56;;;20.46;86.59
47670;BME280;33408;52.062;11.722;2023-07-22T05:35:29;100930.88;;;19.06;90.54
47670;BME280;33408;52.062;11.722;2023-07-22T05:37:56;100932.84;;;19.01;93.56
47670;BME280;33408;52.062;11.722;2023-07-22T05:40:24;100929.16;;;19.05;92.06
47670;BME280;33408;52.062;11.722;2023-07-22T05:42:51;100935.56;;;19.00;91.83
47670;BME280;33408;52.062;11.722;2023-07-22T05:45:17;100939.06;;;19.18;90.65
47670;BME280;33408;52.062;11.722;2023-07-22T05:47:44;100932.38;;;18.93;90.46
47670;BME280;33408;52.062;11.722;2023-07-22T05:50:10;100937.88;;;19.23;91.42
47670;BME280;33408;52.062;11.722;2023-07-22T05:52:37;100937.78;;;19.42;90.00
47670;BME280;33408;52.062;11.722;2023-07-22T05:55:04;100940.44;;;18.90;91.44
47670;BME280;33408;52.062;11.722;2023-07-22T05:57:32;100934.44;;;19.56;89.10
47670;BME280;33408;52.062;11.722;2023-07-22T05:59:59;100943.13;;;18.88;89.23
47670;BME280;33408;52.062;11.722;2023-07-22T06:02:25;100934.72;;;19.17;87.74
47670;BME280;33408;52.062;11.722;2023-07-22T06:04:52;100940.16;;;18.77;88.73
47670;BME280;33408;52.062;11.722;2023-07-22T06:07:18;100948.38;;;19.06;88.22
47670;BME280;33408;52.062;11.722;2023-07-22T06:09:45;100954.50;;;18.89;89.32
47670;BME280;33408;52.062;11.722;2023-07-22T06:12:11;100959.44;;;19.12;87.59
47670;BME280;33408;52.062;11.722;2023-07-22T06:14:39;100947.16;;;19.13;88.23
47670;BME280;33408;52.062;11.722;2023-07-22T06:17:06;100942.78;;;18.59;88.81
47670;BME280;33408;52.062;11.722;2023-07-22T06:19:32;100947.72;;;18.66;88.45
47670;BME280;33408;52.062;11.722;2023-07-22T06:21:59;100956.56;;;19.00;89.08
47670;BME280;33408;52.062;11.722;2023-07-22T06:24:26;100956.78;;;18.77;88.51
47670;BME280;33408;52.062;11.722;2023-07-22T06:26:52;100956.16;;;18.36;90.59
47670;BME280;33408;52.062;11.722;2023-07-22T06:29:19;100960.00;;;18.65;89.50
47670;BME280;33408;52.062;11.722;2023-07-22T06:31:47;100953.44;;;18.56;89.67
47670;BME280;33408;52.062;11.722;2023-07-22T06:34:13;100950.56;;;18.78;89.15
47670;BME280;33408;52.062;11.722;2023-07-22T06:36:40;100956.34;;;18.87;88.17
47670;BME280;33408;52.062;11.722;2023-07-22T06:39:06;100946.25;;;18.60;89.45
47670;BME280;33408;52.062;11.722;2023-07-22T06:41:33;100959.69;;;18.71;88.08
47670;BME280;33408;52.062;11.722;2023-07-22T06:44:00;100954.28;;;18.93;86.61
47670;BME280;33408;52.062;11.722;2023-07-22T06:46:26;100949.72;;;18.61;87.03
47670;BME280;33408;52.062;11.722;2023-07-22T06:48:54;100955.56;;;18.85;86.71
47670;BME280;33408;52.062;11.722;2023-07-22T06:51:21;100946.47;;;18.92;86.81
47670;BME280;33408;52.062;11.722;2023-07-22T06:53:47;100940.16;;;18.77;84.51
47670;BME280;33408;52.062;11.722;2023-07-22T06:56:14;100941.34;;;18.52;80.00
47670;BME280;33408;52.062;11.722;2023-07-22T06:58:40;100940.69;;;18.85;80.14
47670;BME280;33408;52.062;11.722;2023-07-22T07:01:07;100941.28;;;18.90;78.30
47670;BME280;33408;52.062;11.722;2023-07-22T07:03:33;100951.00;;;18.88;76.59
47670;BME280;33408;52.062;11.722;2023-07-22T07:06:01;100947.78;;;19.01;77.48
47670;BME280;33408;52.062;11.722;2023-07-22T07:08:28;100948.00;;;18.96;77.01
47670;BME280;33408;52.062;11.722;2023-07-22T07:10:55;100937.19;;;19.02;76.86
47670;BME280;33408;52.062;11.722;2023-07-22T07:13:22;100947.72;;;18.83;74.79
47670;BME280;33408;52.062;11.722;2023-07-22T07:15:48;100954.09;;;19.31;75.17
47670;BME280;33408;52.062;11.722;2023-07-22T07:18:15;100955.56;;;19.20;73.97
47670;BME280;33408;52.062;11.722;2023-07-22T07:20:43;100955.69;;;18.82;72.75
47670;BME280;33408;52.062;11.722;2023-07-22T07:23:11;100954.56;;;19.22;74.31
47670;BME280;33408;52.062;11.722;2023-07-22T07:25:38;100948.25;;;19.60;74.06
47670;BME280;33408;52.062;11.722;2023-07-22T07:28:04;100953.78;;;19.38;73.75
47670;BME280;33408;52.062;11.722;2023-07-22T07:30:31;100952.34;;;19.48;73.20
47670;BME280;33408;52.062;11.722;2023-07-22T07:33:00;100954.41;;;19.76;71.40
47670;BME280;33408;52.062;11.722;2023-07-22T07:35:27;100954.63;;;19.89;70.41
47670;BME280;33408;52.062;11.722;2023-07-22T07:37:53;100959.16;;;20.19;71.28
47670;BME280;33408;52.062;11.722;2023-07-22T07:40:21;100961.59;;;20.22;67.14
47670;BME280;33408;52.062;11.722;2023-07-22T07:42:48;100963.88;;;20.28;65.70
47670;BME280;33408;52.062;11.722;2023-07-22T07:45:16;100966.09;;;20.20;65.84
47670;BME280;33408;52.062;11.722;2023-07-22T07:47:42;100969.63;;;20.51;66.06
47670;BME280;33408;52.062;11.722;2023-07-22T07:50:09;100965.75;;;20.26;65.25
47670;BME280;33408;52.062;11.722;2023-07-22T07:52:36;100970.75;;;20.15;66.47
47670;BME280;33408;52.062;11.722;2023-07-22T07:55:05;100966.94;;;19.89;67.32
47670;BME280;33408;52.062;11.722;2023-07-22T07:57:33;100979.06;;;20.07;67.41
47670;BME280;33408;52.062;11.722;2023-07-22T07:59:59;100977.53;;;20.51;67.70
47670;BME280;33408;52.062;11.722;2023-07-22T08:02:26;100975.69;;;19.72;69.92
47670;BME280;33408;52.062;11.722;2023-07-22T08:04:53;100976.16;;;19.80;70.14
47670;BME280;33408;52.062;11.722;2023-07-22T08:07:19;100976.94;;;19.98;70.12
47670;BME280;33408;52.062;11.722;2023-07-22T08:09:46;100982.63;;;20.54;68.32
47670;BME280;33408;52.062;11.722;2023-07-22T08:12:14;100982.38;;;20.27;68.84
47670;BME280;33408;52.062;11.722;2023-07-22T08:14:42;100989.69;;;20.53;67.70
47670;BME280;33408;52.062;11.722;2023-07-22T08:17:09;100986.22;;;20.53;66.99
47670;BME280;33408;52.062;11.722;2023-07-22T08:19:35;100988.53;;;20.43;67.33
47670;BME280;33408;52.062;11.722;2023-07-22T08:22:02;100992.91;;;20.58;67.20
47670;BME280;33408;52.062;11.722;2023-07-22T08:24:29;100986.06;;;20.56;66.70
47670;BME280;33408;52.062;11.722;2023-07-22T08:26:56;100990.47;;;20.71;64.89
47670;BME280;33408;52.062;11.722;2023-07-22T08:29:22;100985.63;;;20.64;64.07
47670;BME280;33408;52.062;11.722;2023-07-22T08:31:50;100987.34;;;20.65;64.01
47670;BME280;33408;52.062;11.722;2023-07-22T08:34:17;100996.66;;;20.70;64.36
47670;BME280;33408;52.062;11.722;2023-07-22T08:36:43;100987.72;;;20.89;63.85
47670;BME280;33408;52.062;11.722;2023-07-22T08:39:10;100998.88;;;21.39;63.09
47670;BME280;33408;52.062;11.722;2023-07-22T08:41:37;100998.94;;;21.23;61.82
47670;BME280;33408;52.062;11.722;2023-07-22T08:44:04;101001.91;;;21.47;61.33
47670;BME280;33408;52.062;11.722;2023-07-22T08:46:33;101000.16;;;21.76;61.29
47670;BME280;33408;52.062;11.722;2023-07-22T08:49:01;100997.78;;;21.57;62.15
47670;BME280;33408;52.062;11.722;2023-07-22T08:51:31;100998.34;;;21.48;62.43
47670;BME280;33408;52.062;11.722;2023-07-22T08:53:58;100992.50;;;21.57;62.45
47670;BME280;33408;52.062;11.722;2023-07-22T08:56:26;100983.78;;;21.26;63.01
47670;BME280;33408;52.062;11.722;2023-07-22T08:58:54;100991.00;;;21.53;63.36
47670;BME280;33408;52.062;11.722;2023-07-22T09:01:21;100983.50;;;21.01;63.35
47670;BME280;33408;52.062;11.722;2023-07-22T09:03:49;100990.94;;;21.24;64.13
47670;BME280;33408;52.062;11.722;2023-07-22T09:06:19;100995.00;;;21.30;63.77
47670;BME280;33408;52.062;11.722;2023-07-22T09:08:46;100991.66;;;21.57;63.71
47670;BME280;33408;52.062;11.722;2023-07-22T09:11:13;101000.94;;;21.03;64.21
47670;BME280;33408;52.062;11.722;2023-07-22T09:13:42;100989.19;;;20.79;64.10
47670;BME280;33408;52.062;11.722;2023-07-22T09:16:11;100990.47;;;20.71;64.21
47670;BME280;33408;52.062;11.722;2023-07-22T09:18:39;100989.38;;;20.75;64.94
47670;BME280;33408;52.062;11.722;2023-07-22T09:21:05;100985.78;;;20.76;64.76
47670;BME280;33408;52.062;11.722;2023-07-22T09:23:34;100983.84;;;21.25;64.15
47670;BME280;33408;52.062;11.722;2023-07-22T09:26:11;100983.66;;;21.73;61.98
47670;BME280;33408;52.062;11.722;2023-07-22T09:28:48;100990.09;;;21.54;61.23
47670;BME280;33408;52.062;11.722;2023-07-22T09:31:14;100982.78;;;21.43;60.92
47670;BME280;33408;52.062;11.722;2023-07-22T09:33:41;100983.44;;;21.47;62.20
47670;BME280;33408;52.062;11.722;2023-07-22T09:36:10;100995.69;;;21.03;62.33
47670;BME280;33408;52.062;11.722;2023-07-22T09:38:38;100991.06;;;20.76;62.47
47670;BME280;33408;52.062;11.722;2023-07-22T09:41:05;100990.72;;;20.83;62.61
47670;BME280;33408;52.062;11.722;2023-07-22T09:43:36;100983.88;;;20.94;64.23
47670;BME280;33408;52.062;11.722;2023-07-22T09:46:07;100998.25;;;20.89;64.81
47670;BME280;33408;52.062;11.722;2023-07-22T09:48:39;100985.47;;;21.27;63.69
47670;BME280;33408;52.062;11.722;2023-07-22T09:51:11;100984.50;;;21.59;63.23
47670;BME280;33408;52.062;11.722;2023-07-22T09:53:45;100983.28;;;22.08;61.56
47670;BME280;33408;52.062;11.722;2023-07-22T09:56:12;100989.47;;;22.35;60.53
47670;BME280;33408;52.062;11.722;2023-07-22T09:58:39;100978.28;;;22.03;60.09
47670;BME280;33408;52.062;11.722;2023-07-22T10:01:08;100980.75;;;21.92;60.64
47670;BME280;33408;52.062;11.722;2023-07-22T10:03:40;100989.41;;;21.65;61.06
47670;BME280;33408;52.062;11.722;2023-07-22T10:06:10;100989.59;;;21.62;61.26
47670;BME280;33408;52.062;11.722;2023-07-22T10:08:38;100988.00;;;21.88;61.38
47670;BME280;33408;52.062;11.722;2023-07-22T10:11:08;100983.75;;;22.00;60.20
47670;BME280;33408;52.062;11.722;2023-07-22T10:13:37;100974.75;;;22.58;60.63
47670;BME280;33408;52.062;11.722;2023-07-22T10:16:05;100974.84;;;22.30;59.00
47670;BME280;33408;52.062;11.722;2023-07-22T10:18:34;100982.13;;;22.81;57.78
47670;BME280;33408;52.062;11.722;2023-07-22T10:21:02;100975.38;;;23.29;56.68
47670;BME280;33408;52.062;11.722;2023-07-22T10:23:29;100971.78;;;23.82;56.07
47670;BME280;33408;52.062;11.722;2023-07-22T10:25:57;100977.09;;;22.90;55.48
47670;BME280;33408;52.062;11.722;2023-07-22T10:28:26;100985.09;;;22.76;54.31
47670;BME280;33408;52.062;11.722;2023-07-22T10:30:52;100972.00;;;22.87;55.42
47670;BME280;33408;52.062;11.722;2023-07-22T10:33:19;100968.72;;;22.29;56.16
47670;BME280;33408;52.062;11.722;2023-07-22T10:36:02;100975.06;;;22.12;57.77
47670;BME280;33408;52.062;11.722;2023-07-22T10:38:30;100977.75;;;21.69;58.25
47670;BME280;33408;52.062;11.722;2023-07-22T10:40:56;100973.22;;;21.71;59.21
47670;BME280;33408;52.062;11.722;2023-07-22T10:43:26;100969.19;;;22.36;59.26
47670;BME280;33408;52.062;11.722;2023-07-22T10:45:55;100968.06;;;22.26;59.12
47670;BME280;33408;52.062;11.722;2023-07-22T10:48:23;100966.63;;;22.34;58.97
47670;BME280;33408;52.062;11.722;2023-07-22T10:50:52;100964.97;;;22.19;58.65
47670;BME280;33408;52.062;11.722;2023-07-22T10:53:22;100975.63;;;22.17;59.09
47670;BME280;33408;52.062;11.722;2023-07-22T10:56:08;100970.00;;;21.80;58.68
47670;BME280;33408;52.062;11.722;2023-07-22T10:58:58;100983.84;;;21.84;59.99
47670;BME280;33408;52.062;11.722;2023-07-22T11:01:34;100984.31;;;22.61;59.26
47670;BME280;33408;52.062;11.722;2023-07-22T11:04:11;100978.25;;;22.86;57.90
47670;BME280;33408;52.062;11.722;2023-07-22T11:06:40;100973.03;;;22.72;57.51
47670;BME280;33408;52.062;11.722;2023-07-22T11:09:35;100966.28;;;22.53;58.07
47670;BME280;33408;52.062;11.722;2023-07-22T11:12:04;100966.97;;;22.15;56.96
47670;BME280;33408;52.062;11.722;2023-07-22T11:14:34;100960.63;;;22.03;58.04
47670;BME280;33408;52.062;11.722;2023-07-22T11:17:02;100967.16;;;21.98;57.67
47670;BME280;33408;52.062;11.722;2023-07-22T11:19:30;100967.69;;;22.32;56.07
47670;BME280;33408;52.062;11.722;2023-07-22T11:21:57;100955.47;;;22.44;55.00
47670;BME280;33408;52.062;11.722;2023-07-22T11:24:24;100957.78;;;22.63;54.60
47670;BME280;33408;52.062;11.722;2023-07-22T11:26:51;100963.13;;;22.48;54.21
47670;BME280;33408;52.062;11.722;2023-07-22T11:29:19;100953.03;;;22.40;54.17
47670;BME280;33408;52.062;11.722;2023-07-22T11:31:48;100952.59;;;23.01;54.00
47670;BME280;33408;52.062;11.722;2023-07-22T11:34:16;100954.88;;;23.59;53.88
47670;BME280;33408;52.062;11.722;2023-07-22T11:36:44;100955.41;;;23.25;53.27
47670;BME280;33408;52.062;11.722;2023-07-22T11:39:11;100943.31;;;23.08;53.15
47670;BME280;33408;52.062;11.722;2023-07-22T11:41:39;100946.63;;;23.25;53.00
47670;BME280;33408;52.062;11.722;2023-07-22T11:44:08;100940.34;;;23.26;53.54
47670;BME280;33408;52.062;11.722;2023-07-22T11:46:36;100938.28;;;23.81;51.07
47670;BME280;33408;52.062;11.722;2023-07-22T11:49:04;100941.28;;;23.89;52.21
47670;BME280;33408;52.062;11.722;2023-07-22T11:51:30;100942.88;;;23.79;51.60
47670;BME280;33408;52.062;11.722;2023-07-22T11:53:58;100935.81;;;23.41;51.57
47670;BME280;33408;52.062;11.722;2023-07-22T11:56:26;100938.34;;;23.29;52.81
47670;BME280;33408;52.062;11.722;2023-07-22T11:58:54;100940.59;;;22.83;51.53
47670;BME280;33408;52.062;11.722;2023-07-22T12:01:21;100931.44;;;23.01;52.48
47670;BME280;33408;52.062;11.722;2023-07-22T12:03:49;100934.22;;;23.12;52.37
47670;BME280;33408;52.062;11.722;2023-07-22T12:06:17;100928.00;;;23.14;52.47
47670;BME280;33408;52.062;11.722;2023-07-22T12:08:45;100939.00;;;23.33;52.36
47670;BME280;33408;52.062;11.722;2023-07-22T12:11:18;100928.31;;;23.35;52.30
47670;BME280;33408;52.062;11.722;2023-07-22T12:13:45;100943.00;;;23.13;52.80
47670;BME280;33408;52.062;11.722;2023-07-22T12:16:21;100935.59;;;23.31;52.73
47670;BME280;33408;52.062;11.722;2023-07-22T12:18:49;100938.28;;;23.04;51.83
47670;BME280;33408;52.062;11.722;2023-07-22T12:21:17;100939.22;;;23.17;52.83
47670;BME280;33408;52.062;11.722;2023-07-22T12:23:45;100931.69;;;23.24;52.52
47670;BME280;33408;52.062;11.722;2023-07-22T12:26:12;100930.75;;;23.38;51.86
47670;BME280;33408;52.062;11.722;2023-07-22T12:28:39;100934.13;;;23.40;51.48
47670;BME280;33408;52.062;11.722;2023-07-22T12:31:05;100922.69;;;23.39;51.54
47670;BME280;33408;52.062;11.722;2023-07-22T12:33:32;100933.25;;;23.52;50.96
47670;BME280;33408;52.062;11.722;2023-07-22T12:35:58;100932.72;;;23.47;50.54
47670;BME280;33408;52.062;11.722;2023-07-22T12:38:26;100928.06;;;23.63;50.74